Buffalo, WY

11:54 AM MDT on September 23, 2014 (GMT -0600)
Johnson County | Change Station
CLOSE
Current Station
Airport
Location: Buffalo,
Elevation: 4967 ft
Nearby Weather Stations

Elev 4967 ft 44.38 °N, 106.72 °W | Updated 1 hour ago

Mostly Cloudy
Mostly Cloudy
74 °F
Feels Like 74 °F
N
12
Wind Variable Wind from NNW

Today
High -- | Low -- °F
--% Chance of Precip.
Yesterday
High -- | Low -- °F
Precip. -- in
6:55 AM 7:02 PM
Waning Crescent, 0% visible
Pressure 29.93 in
Visibility 10.0 miles
Clouds Mostly Cloudy 10000 ft
Dew Point 45 °F
Humidity 35%
Rainfall 0.00 in
Snow Depth 1 in , 1 in , 0 in
UV 3 out of 12
Pollen 5.00 out of 12
Air Quality Not available.
Flu Activity Not available.
METAR KBYG 231653Z AUTO 34010KT 10SM BKN100 23/07 A3007 RMK AO2 SLP134 T02330072

More Conditions Fewer Conditions

Pressure 29.93 in
Visibility 10.0 miles
Clouds Mostly Cloudy 10000 ft
Dew Point 45 °F
Humidity 35%
Rainfall 0.00 in
Snow Depth 1 in , 1 in , 0 in
UV 3 out of 12
Pollen 5.00 out of 12
Air Quality Not available.
Flu Activity Not available.
METAR KBYG 231653Z AUTO 34010KT 10SM BKN100 23/07 A3007 RMK AO2 SLP134 T02330072

More Conditions Fewer Conditions

10-Day Weather Forecast

Almanac

Astronomy

Sep. 23, 2014 Rise Set
Actual Time 6:55 AM MDT 7:02 PM MDT
Civil Twilight 6:26 AM MDT 7:31 PM MDT
Nautical Twilight 5:52 AM MDT 8:05 PM MDT
Astronomical Twilight 5:17 AM MDT 8:39 PM MDT
Moon 6:21 AM MDT 6:42 PM MDT
Length of Visible Light 13h 04m
Length of Day
12h 07m
Tomorrow will be 3m 2s shorter.
Waning Crescent, 0% of the Moon is Illuminated
Today
Waning Crescent
Sep 24
New
Oct 1
First Quarter
Oct 8
Full
Oct 15
Last Quarter

Today's Extremes

State Highs State Lows

Community

WunderPhotos

Upload Photos

1,755,758 photos uploaded!

WunderBlogs® & News

Nearby

Snow Depth

Station Depth Elevation
Reno Hill 1 in 8500 ft
Kendall R.S. 1 in 7740 ft
Base Camp 0 in 7030 ft
Sylvan Lake 0 in 8420 ft
Casper Mountain 0 in 7850 ft

Earthquake Activity

City Distance Mag. Time & Date
No recent earthquake activity has been reported nearby.
Minimum magnitude displayed is 2.5.

Coastal Water Temperatures

Place Temperature
No Stations Reporting

Nearby Weather Stations